»·PEaware :: N275ND KSNA-KCMA

N275ND :: KSNA-KCMA

FLIGHT INFORMATION

Flight Status: Arrived
Operator: Privately registered:
United States
More flights under this callsign
Pilot: John A. (19135)
Aircraft: CESSNA 172 SKYHAWK
(C172)
More flights by this aircraft type
Origin: KSNA John Wayne-Orange Co
United States
Destination: KCMA Camarillo
United States
More flights between these airports :: More routes between these airports
Route: +SLI V23 POPPR SMO125R SMO VNY
File this flight plan on PilotEdge
Remarks: I-4 Rating
Altitude:
(Current/Filed)
4,000ft
Speed:
(Current/Filed)
115kts
Departed: 02-Aug-19 04:15 PM
Arrived: 02-Aug-19 04:58 PM
Distance/Time
Traveled:
69nm/0:42
Distance/Time
To Go:
Arrived

Flight Plot

Page will automatically refresh every two minutes.


Map Options




Map Legend


Flown Route
Filed Route
Departure Airport
Arrival Airport
Navaid (VOR, NDB)
Fix

Horizontal Profiles

Position Reports

Time Latitude Longitude Heading Altitude Ground
Speed
02-Aug-19 15:35 33.668086 -117.871025 221 60ft 0kts
02-Aug-19 15:36 33.668086 -117.871025 221 60ft 0kts
02-Aug-19 15:37 33.668086 -117.871025 221 60ft 0kts
02-Aug-19 15:38 33.668086 -117.871025 221 60ft 0kts
02-Aug-19 15:39 33.668086 -117.871025 221 60ft 0kts
02-Aug-19 15:40 33.668086 -117.871025 221 60ft 0kts
02-Aug-19 15:41 33.668086 -117.871025 221 60ft 0kts
02-Aug-19 15:42 33.668086 -117.871025 221 60ft 0kts
02-Aug-19 15:43 33.668086 -117.871025 221 60ft 0kts
02-Aug-19 15:44 33.668086 -117.871025 221 60ft 0kts
02-Aug-19 15:45 33.668086 -117.871025 221 60ft 0kts
02-Aug-19 15:46 33.668086 -117.871025 221 60ft 0kts
02-Aug-19 15:47 33.668086 -117.871025 221 60ft 0kts
02-Aug-19 15:48 33.668086 -117.871025 221 60ft 0kts
02-Aug-19 15:49 33.668086 -117.871025 221 60ft 0kts
02-Aug-19 15:50 33.668086 -117.871025 221 60ft 0kts
02-Aug-19 15:51 33.668086 -117.871025 221 60ft 0kts
02-Aug-19 15:52 33.668086 -117.871025 221 60ft 0kts
02-Aug-19 15:53 33.668086 -117.871025 221 60ft 0kts
02-Aug-19 15:54 33.668086 -117.871025 221 60ft 0kts
02-Aug-19 15:55 33.668086 -117.871025 221 60ft 0kts
02-Aug-19 15:56 33.668086 -117.871025 221 60ft 0kts
02-Aug-19 15:57 33.668086 -117.871025 221 60ft 0kts
02-Aug-19 15:58 33.668086 -117.871025 221 60ft 0kts
02-Aug-19 15:59 33.668086 -117.871025 221 60ft 0kts
02-Aug-19 16:00 33.668086 -117.871025 221 60ft 0kts
02-Aug-19 16:01 33.668086 -117.871025 221 60ft 0kts
02-Aug-19 16:02 33.668086 -117.871025 221 60ft 0kts
02-Aug-19 16:03 33.668086 -117.871025 221 60ft 0kts
02-Aug-19 16:04 33.668086 -117.871025 221 60ft 0kts
02-Aug-19 16:05 33.668086 -117.871025 221 60ft 0kts
02-Aug-19 16:06 33.668086 -117.871025 221 60ft 0kts
02-Aug-19 16:07 33.668086 -117.871025 221 60ft 0kts
02-Aug-19 16:08 33.668045 -117.871178 288 60ft 6kts
02-Aug-19 16:09 33.670019 -117.870005 36 60ft 19kts
02-Aug-19 16:10 33.674445 -117.866847 27 60ft 9kts
02-Aug-19 16:11 33.677227 -117.865055 28 60ft 15kts
02-Aug-19 16:12 33.679934 -117.863651 293 60ft 0kts
02-Aug-19 16:13 33.679934 -117.863651 293 60ft 0kts
02-Aug-19 16:14 33.674352 -117.867520 201 251ft 61kts
02-Aug-19 16:15 33.661156 -117.886978 234 1148ft 79kts
02-Aug-19 16:17 33.650836 -117.910724 245 2073ft 85kts
02-Aug-19 16:18 33.638408 -117.933855 241 2998ft 84kts
02-Aug-19 16:19 33.627572 -117.958727 241 3834ft 85kts
02-Aug-19 16:20 33.622456 -117.986663 263 4252ft 87kts
02-Aug-19 16:21 33.633015 -118.013870 315 4022ft 106kts
02-Aug-19 16:22 33.651919 -118.041124 313 4061ft 107kts
02-Aug-19 16:23 33.672634 -118.067084 315 4097ft 107kts
02-Aug-19 16:24 33.691347 -118.096191 306 4050ft 109kts
02-Aug-19 16:25 33.712848 -118.124233 309 4030ft 126kts
02-Aug-19 16:26 33.736153 -118.156346 311 4154ft 126kts
02-Aug-19 16:27 33.761592 -118.188555 307 4029ft 129kts
02-Aug-19 16:28 33.785417 -118.220764 316 3993ft 128kts
02-Aug-19 16:29 33.810340 -118.251235 313 4031ft 131kts
02-Aug-19 16:30 33.831991 -118.286251 310 4091ft 126kts
02-Aug-19 16:31 33.858955 -118.314472 315 3993ft 111kts
02-Aug-19 16:32 33.885253 -118.340090 327 4083ft 128kts
02-Aug-19 16:33 33.913996 -118.367579 323 4054ft 129kts
02-Aug-19 16:34 33.941996 -118.395675 324 3985ft 124kts
02-Aug-19 16:34 33.963820 -118.415661 321 3966ft 117kts
02-Aug-19 16:36 33.993937 -118.443364 321 4005ft 125kts
02-Aug-19 16:37 34.024350 -118.455926 345 4077ft 115kts
02-Aug-19 16:37 34.049654 -118.462293 351 4089ft 113kts
02-Aug-19 16:38 34.081877 -118.466436 348 4009ft 118kts
02-Aug-19 16:40 34.119115 -118.473134 344 4073ft 111kts
02-Aug-19 16:40 34.131050 -118.497866 277 4034ft 117kts
02-Aug-19 16:41 34.136557 -118.536712 272 3992ft 116kts
02-Aug-19 16:42 34.140398 -118.575022 280 3998ft 118kts
02-Aug-19 16:43 34.150746 -118.611785 282 3955ft 119kts
02-Aug-19 16:44 34.156655 -118.649823 278 4025ft 114kts
02-Aug-19 16:45 34.159191 -118.687243 281 4135ft 109kts
02-Aug-19 16:46 34.163326 -118.725661 274 4069ft 116kts
02-Aug-19 16:47 34.167269 -118.763964 270 3578ft 108kts
02-Aug-19 16:48 34.172014 -118.801555 280 3483ft 117kts
02-Aug-19 16:49 34.177802 -118.838575 278 3497ft 116kts
02-Aug-19 16:50 34.181463 -118.877340 274 3136ft 129kts
02-Aug-19 16:51 34.185472 -118.921167 280 1498ft 110kts
02-Aug-19 16:52 34.193008 -118.948089 289 2375ft 98kts
02-Aug-19 16:53 34.198097 -118.981535 276 2770ft 106kts
02-Aug-19 16:54 34.205375 -119.020748 303 1819ft 130kts
02-Aug-19 16:55 34.213667 -119.047368 265 769ft 70kts
02-Aug-19 16:56 34.213777 -119.070983 269 332ft 66kts
02-Aug-19 16:57 34.213743 -119.088705 259 81ft 16kts
02-Aug-19 16:58 34.212099 -119.090608 130 81ft 12kts
02-Aug-19 16:59 34.210744 -119.091551 358 81ft 0kts
02-Aug-19 17:00 34.210744 -119.091551 358 81ft 0kts

Navigation Log

Ident Type
Flight plan parsing failed, navigation log unavailable